Agen-La Garenne Airport

LFBA · Lot-et-Garonne, Aquitania-Limosino-Poitou-Charentes, Francia

Storia di METAR LFBA · Agen-La Garenne Airport

Di seguito sono riportati i METAR degli ultimi giorni. Seleziona un anno per sfogliare i METAR più vecchi, dall'anno 2007 in poi.

28 novembre 2022

Tempo Codice Tempo metereologico Temp. Vista Base nuvolosa Vento METAR/SPECI
10:00
V
10 °C 10 km+ - 240° 240° 7 kt METAR LFBA 280900Z AUTO 24007KT 200V270 CAVOK 10/09 Q1018 TEMPO SCT025TCU
10:00
V
10 °C 10 km+ - 240° 240° 7 kt METAR LFBA 280900Z AUTO 24007KT 200V270 CAVOK 10/09 Q1018 TEMPO SCT025TCU
09:30
V
10 °C 10 km+ - 250° 250° 7 kt METAR LFBA 280830Z AUTO 25007KT CAVOK 10/09 Q1018 TEMPO 4000 SHRA BKN010 BKN020TCU
09:00
V
10 °C 10 km+ - 240° 240° 6 kt METAR LFBA 280800Z AUTO 24006KT 210V270 CAVOK 10/09 Q1018 TEMPO 4000 SHRA BKN010 BKN020TCU
08:30
V
10 °C 10 km+ 5.800 ft 240° 240° 5 kt METAR LFBA 280730Z AUTO 24005KT 9999 FEW037/// SCT047/// OVC058/// //////TCU 10/09 Q1018 TEMPO 4000 SHRA BKN010 BKN020TCU
08:00
M
10 °C 10 km+ 1.200 ft 260° 260° 8 kt METAR LFBA 280700Z AUTO 26008KT 230V290 9999 BKN012/// BKN018/// BKN045/// //////TCU 10/09 Q1018 TEMPO 4000 SHRA SCT009 BKN020TCU
07:30
M
10 °C 7 km 1.700 ft 260° 260° 9 kt METAR LFBA 280630Z AUTO 26009KT 7000 -RA SCT009/// BKN017/// OVC028/// //////TCU 10/09 Q1018 TEMPO 4000 SHRA
07:00
V
10 °C 10 km+ 3.300 ft 260° 260° 7 kt METAR LFBA 280600Z AUTO 26007KT 230V290 9999 FEW010/// SCT027/// BKN033/// ///TCU 10/09 Q1017 TEMPO 4000 SHRA
06:30
V
10 °C 10 km+ 10.000 ft 250° 250° 8 kt METAR LFBA 280530Z AUTO 25008KT 220V290 9999 FEW025/// SCT034/// BKN100/// //////TCU 10/09 Q1017
06:00
M
10 °C 10 km+ 2.600 ft 260° 260° 8 kt METAR LFBA 280500Z AUTO 26008KT 220V300 9999 BKN026/// BKN035/// OVC160/// //////CB 10/09 Q1017
05:30
M
10 °C 10 km+ 2.500 ft 240° 240° 7 kt METAR LFBA 280430Z AUTO 24007KT 190V310 9999 OVC025/// ///TCU 10/09 Q1017
05:00
M
10 °C 10 km+ 2.500 ft 250° 250° 6 kt METAR LFBA 280400Z AUTO 25006KT 210V290 9999 BKN025/// BKN040/// BKN060/// ///TCU 10/09 Q1017
04:30
V
10 °C 10 km+ 10.000 ft 230° 230° 8 kt METAR LFBA 280330Z AUTO 23008KT 190V260 9999 FEW029/// SCT037/// OVC100/// //////TCU 10/09 Q1017
04:00
V
10 °C 10 km+ 10.000 ft 220° 220° 6 kt METAR LFBA 280300Z AUTO 22006KT 170V260 9999 FEW032/// SCT060/// OVC100/// //////CB 10/09 Q1017
03:30
V
10 °C 10 km+ 4.600 ft 210° 210° 5 kt METAR LFBA 280230Z AUTO 21005KT 170V250 9999 -RA SCT037/// BKN046/// BKN058/// //////TCU 10/09 Q1017
03:00
V
10 °C 10 km+ 8.000 ft 230° 230° 6 kt METAR LFBA 280200Z AUTO 23006KT 180V270 9999 -RA FEW024/// SCT062/// OVC080/// ///CB 10/10 Q1017
02:30
M
10 °C 10 km+ 2.000 ft 230° 230° 7 kt METAR LFBA 280130Z AUTO 23007KT 200V260 9999 -RA FEW008/// BKN020/// BKN029/// ///CB 10/10 Q1017
02:00
I
10 °C 5 km 800 ft 310° 310° 5 kt METAR LFBA 280100Z AUTO 31005KT 270V350 5000 RA BR BKN008/// BKN013/// BKN022/// ///CB 10/10 Q1017
01:30
M
10 °C 5 km 3.500 ft 170° 170° 5 kt METAR LFBA 280030Z AUTO 17005KT 120V190 5000 RA BR FEW016/// BKN035/// BKN041/// ///CB 10/09 Q1017
01:00
M
10 °C 8 km 1.800 ft Var Var 3 kt METAR LFBA 280000Z AUTO VRB03KT 8000 RA BKN018/// BKN035/// BKN048/// //////CB 10/09 Q1017
00:30
V
10 °C 10 km+ 7.600 ft 120° 120° 5 kt METAR LFBA 272330Z AUTO 12005KT 090V150 9999 -RA SCT021/// SCT027/// OVC076/// //////TCU 10/09 Q1017
00:00
V
10 °C 10 km+ - 120° 120° 4 kt METAR LFBA 272300Z AUTO 12004KT 9999 RA //////TCU 10/09 Q1017

27 novembre 2022

Tempo Codice Tempo metereologico Temp. Vista Base nuvolosa Vento METAR/SPECI
23:30
V
11 °C 10 km+ 5.800 ft 190° 190° 5 kt METAR LFBA 272230Z AUTO 19005KT 140V230 9999 -RA FEW020/// SCT048/// BKN058/// //////CB 11/09 Q1017 TEMPO 2000 RA BKN013
23:00
M
11 °C 10 km+ 1.800 ft 070° 070° 3 kt METAR LFBA 272200Z AUTO 07003KT 040V130 9999 -RA BKN018/// BKN035/// OVC098/// //////CB 11/09 Q1017 TEMPO 4500 -RA BKN013
22:30
M
11 °C 10 km+ 2.100 ft 180° 180° 5 kt METAR LFBA 272130Z AUTO 18005KT 130V230 9999 OVC021 11/08 Q1017 TEMPO 4500 -RA BKN013
22:00
M
10 °C 10 km+ 2.100 ft 170° 170° 5 kt METAR LFBA 272100Z AUTO 17005KT 090V220 9999 BKN021 OVC150 10/08 Q1017 NOSIG
21:30
V
9 °C 10 km+ 16.000 ft 090° 090° 4 kt METAR LFBA 272030Z AUTO 09004KT 9999 SCT023 BKN160 OVC200 09/08 Q1017 NOSIG
21:00
M
9 °C 10 km+ 2.500 ft 100° 100° 6 kt METAR LFBA 272000Z AUTO 10006KT 9999 BKN025 BKN160 BKN190 09/08 Q1017 NOSIG
20:30
V
10 °C 10 km+ 3.100 ft 070° 070° 5 kt METAR LFBA 271930Z AUTO 07005KT 9999 BKN031 BKN038 BKN240 10/08 Q1018 NOSIG
20:00
V
9 °C 10 km+ - Var Var 3 kt METAR LFBA 271900Z AUTO VRB03KT CAVOK 09/08 Q1018 NOSIG
19:30
V
9 °C 10 km+ - Var Var 2 kt METAR LFBA 271830Z AUTO VRB02KT CAVOK 09/08 Q1017 NOSIG
19:00
V
9 °C 10 km+ - 150° 150° 4 kt METAR LFBA 271800Z AUTO 15004KT 120V200 CAVOK 09/08 Q1017 NOSIG
18:30
V
9 °C 10 km+ - Var Var 3 kt METAR LFBA 271730Z AUTO VRB03KT CAVOK 09/07 Q1018 NOSIG
18:00
V
10 °C 10 km+ - 090° 090° 2 kt METAR LFBA 271700Z AUTO 09002KT CAVOK 10/08 Q1017 NOSIG
17:30
V
10 °C 10 km+ - 120° 120° 3 kt METAR LFBA 271630Z AUTO 12003KT CAVOK 10/08 Q1017 NOSIG
17:00
V
11 °C 10 km+ - 130° 130° 6 kt METAR LFBA 271600Z AUTO 13006KT CAVOK 11/08 Q1017 NOSIG
16:30
V
12 °C 10 km+ - 110° 110° 7 kt METAR LFBA 271530Z AUTO 11007KT CAVOK 12/08 Q1017 NOSIG
16:00
V
12 °C 10 km+ - 110° 110° 6 kt METAR LFBA 271500Z AUTO 11006KT CAVOK 12/08 Q1018 NOSIG
15:30
V
13 °C 10 km+ - 120° 120° 6 kt METAR LFBA 271430Z AUTO 12006KT CAVOK 13/08 Q1018 NOSIG
15:00
V
12 °C 10 km+ - 100° 100° 6 kt METAR LFBA 271400Z AUTO 10006KT CAVOK 12/09 Q1018 NOSIG
14:30
V
12 °C 10 km+ - 110° 110° 7 kt METAR LFBA 271330Z AUTO 11007KT CAVOK 12/09 Q1018 NOSIG
14:00
V
11 °C 10 km+ - 110° 110° 8 kt METAR LFBA 271300Z AUTO 11008KT CAVOK 11/09 Q1019 NOSIG
13:30
V
10 °C 10 km+ - 110° 110° 7 kt METAR LFBA 271230Z AUTO 11007KT CAVOK 10/08 Q1019 NOSIG
13:00
V
10 °C 10 km+ - 120° 120° 7 kt METAR LFBA 271200Z AUTO 12007KT CAVOK 10/07 Q1020 NOSIG
12:30
V
9 °C 10 km+ - 110° 110° 6 kt METAR LFBA 271130Z AUTO 11006KT CAVOK 09/07 Q1021 NOSIG
12:00
V
8 °C 10 km+ - 120° 120° 9 kt METAR LFBA 271100Z AUTO 12009KT CAVOK 08/06 Q1021 NOSIG
11:30
V
7 °C 10 km+ - 120° 120° 8 kt METAR LFBA 271030Z AUTO 12008KT CAVOK 07/05 Q1022 NOSIG
11:00
V
6 °C 10 km+ - 100° 100° 8 kt METAR LFBA 271000Z AUTO 10008KT CAVOK 06/05 Q1022 NOSIG
10:30
V
5 °C 10 km+ - 110° 110° 8 kt METAR LFBA 270930Z AUTO 11008KT CAVOK 05/04 Q1022 NOSIG
10:00
V
5 °C 10 km+ - 120° 120° 9 kt METAR LFBA 270900Z AUTO 12009KT CAVOK 05/04 Q1022 NOSIG
09:30
V
4 °C 10 km+ - 110° 110° 7 kt METAR LFBA 270830Z AUTO 11007KT CAVOK 04/04 Q1022 NOSIG
09:00
V
3 °C 10 km+ - 110° 110° 8 kt METAR LFBA 270800Z AUTO 11008KT CAVOK 03/03 Q1022 TEMPO 3000 BR
08:30
V
3 °C 10 km+ - 100° 100° 8 kt METAR LFBA 270730Z AUTO 10008KT CAVOK 03/03 Q1022 TEMPO 3000 BR
08:00
V
3 °C 10 km+ - 120° 120° 8 kt METAR LFBA 270700Z AUTO 12008KT CAVOK 03/03 Q1023 TEMPO 3000 BR OVC002
07:30
L
3 °C 6 km 200 ft 110° 110° 6 kt METAR LFBA 270630Z AUTO 11006KT 6000 BKN002 OVC190 03/03 Q1023 TEMPO 3000 BR BECMG SCT010
07:00
L
3 °C 6 km 200 ft 120° 120° 8 kt METAR LFBA 270600Z AUTO 12008KT 6000 BKN002 03/03 Q1023 TEMPO 0800 FG
06:30
L
4 °C 2,4 km - 110° 110° 7 kt METAR LFBA 270530Z AUTO 11007KT 2400 BR VV/// 04/04 Q1023 TEMPO 0800 FG BECMG OVC002
06:00
L
4 °C 5 km 200 ft 110° 110° 7 kt METAR LFBA 270500Z AUTO 11007KT 5000 BR BKN002 BKN150 04/04 Q1023
05:30
L
4 °C 2,3 km - 110° 110° 7 kt METAR LFBA 270430Z AUTO 11007KT 2300 BR VV/// 04/04 Q1024
05:00
L
4 °C 900 m - 110° 110° 10 kt METAR LFBA 270400Z AUTO 11010KT 1000 0900 R29/1100U BCFG VV/// 04/04 Q1023
04:30
L
5 °C 550 m - 110° 110° 8 kt METAR LFBA 270330Z AUTO 11008KT 0600 0550 R29/0650D FG VV/// 05/05 Q1024
04:00
L
5 °C 450 m - 100° 100° 8 kt METAR LFBA 270300Z AUTO 10008KT 0500 0450 R29/0500N FG VV/// 05/05 Q1024
03:30
L
5 °C 400 m - 110° 110° 10 kt METAR LFBA 270230Z AUTO 11010KT 0400 R29/0450N FG VV/// 05/05 Q1024
03:00
L
5 °C 550 m - 110° 110° 8 kt METAR LFBA 270200Z AUTO 11008KT 0550 R29/0650N FG VV/// 05/05 Q1025
02:30
L
6 °C 750 m - 110° 110° 6 kt METAR LFBA 270130Z AUTO 11006KT 0800 0750 R29/0900N FG VV/// 06/06 Q1025
02:00
L
6 °C 550 m - 100° 100° 6 kt METAR LFBA 270100Z AUTO 10006KT 0600 0550 R29/0700N FG VV/// 06/06 Q1025
01:30
L
6 °C 450 m - 100° 100° 6 kt METAR LFBA 270030Z AUTO 10006KT 0500 0450 R29/0550N FG VV/// 06/06 Q1025
01:00
L
6 °C 450 m - 110° 110° 7 kt METAR LFBA 270000Z AUTO 11007KT 0500 0450 R29/0550N FG VV/// 06/06 Q1025
00:30
L
6 °C 450 m - 110° 110° 9 kt METAR LFBA 262330Z AUTO 11009KT 0500 0450 R29/0600U FG VV/// 06/06 Q1025
00:00
L
6 °C 450 m - 110° 110° 8 kt METAR LFBA 262300Z AUTO 11008KT 0450 R29/0550N FG VV/// 06/06 Q1025

26 novembre 2022

Tempo Codice Tempo metereologico Temp. Vista Base nuvolosa Vento METAR/SPECI
23:30
L
6 °C 300 m - 110° 110° 5 kt METAR LFBA 262230Z AUTO 11005KT 0300 R29/0325N FG VV/// 06/06 Q1025
23:00
L
6 °C 350 m - 110° 110° 4 kt METAR LFBA 262200Z AUTO 11004KT 0400 0350 R29/0400N FG VV/// 06/06 Q1025
22:30
L
6 °C 400 m - 110° 110° 4 kt METAR LFBA 262130Z AUTO 11004KT 070V130 0450 0400 R29/0450N FG VV/// 06/06 Q1025
22:00
L
6 °C 350 m - 110° 110° 6 kt METAR LFBA 262100Z AUTO 11006KT 0350 R29/0400U FG VV/// 06/06 Q1025 NOSIG
21:30
L
6 °C 350 m - 120° 120° 4 kt METAR LFBA 262030Z AUTO 12004KT 0350 R29/0375N FG VV/// 06/06 Q1026 NOSIG
21:00
L
6 °C 300 m - 110° 110° 3 kt METAR LFBA 262000Z AUTO 11003KT 0300 R29/0275N FG VV/// 06/06 Q1026 TEMPO 0400 FG
20:30
L
5 °C 350 m - 110° 110° 3 kt METAR LFBA 261930Z AUTO 11003KT 0700 0350 R29/0375D FG VV/// 05/05 Q1026 TEMPO 0400 FG
20:00
L
5 °C 550 m 200 ft 110° 110° 3 kt METAR LFBA 261900Z AUTO 11003KT 0600 0550 R29/0800D FG BKN002 OVC230 05/05 Q1026 TEMPO VV///
19:30
L
5 °C 450 m 21.000 ft 090° 090° 3 kt METAR LFBA 261830Z AUTO 09003KT 0450 R29/0600N FG FEW003 BKN210 05/05 Q1027 BECMG 3000 BR
19:00
I
6 °C 2,9 km - 110° 110° 4 kt METAR LFBA 261800Z AUTO 11004KT 2900 BR NSC 06/06 Q1027 BECMG 3000 BR
18:30
M
6 °C 6 km - Var Var 1 kt METAR LFBA 261730Z AUTO VRB01KT 6000 NSC 06/06 Q1027 NOSIG
18:00
M
6 °C 7 km - 100° 100° 5 kt METAR LFBA 261700Z AUTO 10005KT 7000 NSC 06/06 Q1027 NOSIG
17:30
M
6 °C 5 km - 120° 120° 4 kt METAR LFBA 261630Z AUTO 12004KT 5000 BR NSC 06/06 Q1027 NOSIG
17:00
V
8 °C 10 km+ - Var Var 2 kt METAR LFBA 261600Z AUTO VRB02KT CAVOK 08/07 Q1027 NOSIG
16:30
V
8 °C 10 km+ - 140° 140° 4 kt METAR LFBA 261530Z AUTO 14004KT 9999 FEW006 SCT170 08/07 Q1027 NOSIG
16:00
L
8 °C 10 km+ 400 ft 130° 130° 7 kt METAR LFBA 261500Z AUTO 13007KT 9999 BKN004 BKN170 08/08 Q1027 BECMG SCT010
15:30
I
9 °C 10 km+ 500 ft 120° 120° 9 kt METAR LFBA 261430Z AUTO 12009KT 9999 OVC005 09/08 Q1027 NOSIG
15:00
L
9 °C 10 km+ 400 ft 110° 110° 8 kt METAR LFBA 261400Z AUTO 11008KT 080V140 9999 OVC004 09/08 Q1028 BECMG BKN006
14:30
L
9 °C 10 km+ 300 ft 110° 110° 5 kt METAR LFBA 261330Z AUTO 11005KT 080V150 9999 OVC003 09/08 Q1028 BECMG BKN006
14:00
L
8 °C 10 km+ 300 ft 110° 110° 6 kt METAR LFBA 261300Z AUTO 11006KT 080V140 9999 OVC003 08/08 Q1029 BECMG BKN006
13:30
L
8 °C 10 km+ 300 ft 110° 110° 6 kt METAR LFBA 261230Z AUTO 11006KT 9999 OVC003 08/08 Q1029 BECMG BKN006
13:00
L
7 °C 10 km+ 200 ft 110° 110° 8 kt METAR LFBA 261200Z AUTO 11008KT 9999 OVC002 07/07 Q1029 BECMG BKN006
12:30
L
7 °C 2,3 km 200 ft 110° 110° 9 kt METAR LFBA 261130Z AUTO 11009KT 2300 BR OVC002 07/07 Q1030 BECMG 8000 NSW BKN006
12:00
L
7 °C 600 m - 100° 100° 7 kt METAR LFBA 261100Z AUTO 10007KT 070V130 0600 R29/0800D FG VV/// 07/07 Q1030 BECMG 8000 NSW BKN006
11:30
L
6 °C 550 m - 120° 120° 7 kt METAR LFBA 261030Z AUTO 12007KT 0550 R29/0750D FG VV/// 06/06 Q1031 BECMG 8000 NSW BKN006
11:00
L
6 °C 450 m - 110° 110° 8 kt METAR LFBA 261000Z AUTO 11008KT 0500 0450 R29/0650N FG VV/// 06/06 Q1031 BECMG 3000 BR BKN003
10:30
L
6 °C 450 m - 110° 110° 10 kt METAR LFBA 260930Z AUTO 11010KT 0450 R29/0600U FG VV/// 06/06 Q1030 BECMG 3000 BR BKN003
10:00
L
5 °C 500 m - 110° 110° 7 kt METAR LFBA 260900Z AUTO 11007KT 080V140 0550 0500 R29/0650N FG VV/// 05/05 Q1031 BECMG 3000 BR BKN003
09:30
L
5 °C 450 m - 100° 100° 8 kt METAR LFBA 260830Z AUTO 10008KT 0550 0450 R29/0650N FG VV/// 05/05 Q1031 BECMG 3000 BR OVC002
09:00
L
5 °C 450 m - 110° 110° 8 kt METAR LFBA 260800Z AUTO 11008KT 0500 0450 R29/0600N FG VV/// 05/05 Q1031 NOSIG
08:30
L
5 °C 450 m - 110° 110° 7 kt METAR LFBA 260730Z AUTO 11007KT 0500 0450 R29/0600N FG VV/// 05/05 Q1031 NOSIG
08:00
L
4 °C 800 m - 100° 100° 2 kt METAR LFBA 260700Z AUTO 10002KT 0900 0800 R29/1100U FG VV/// 04/04 Q1031 TEMPO 0400 FG
07:30
L
4 °C 750 m - 110° 110° 1 kt METAR LFBA 260630Z AUTO 11001KT 0900 0750 R29/1100N FG VV/// 04/04 Q1031 TEMPO 0400 FG
07:00
L
4 °C 900 m - Var 000° 0 kt METAR LFBA 260600Z AUTO 00000KT 1000 0900 R29/1200U BCFG VV/// 04/04 Q1031
06:30
L
4 °C 550 m - 140° 140° 2 kt METAR LFBA 260530Z AUTO 14002KT 0650 0550 R29/0700N FG VV/// 04/04 Q1031
06:00
L
4 °C 1 km - 100° 100° 3 kt METAR LFBA 260500Z AUTO 10003KT 1100 1000 R29/1300U BR VV/// 04/04 Q1030
05:30
L
5 °C 450 m - 110° 110° 2 kt METAR LFBA 260430Z AUTO 11002KT 0500 0450 R29/0650U FG VV/// 05/05 Q1030
05:00
L
5 °C 350 m - 110° 110° 3 kt METAR LFBA 260400Z AUTO 11003KT 0400 0350 R29/0375N FG VV/// 05/05 Q1030
04:30
L
4 °C 450 m - 110° 110° 2 kt METAR LFBA 260330Z AUTO 11002KT 0550 0450 R29/0650U FG VV/// 04/04 Q1030
04:00
L
4 °C 300 m - 110° 110° 2 kt METAR LFBA 260300Z AUTO 11002KT 0350 0300 R29/0325N FG VV/// 04/04 Q1030
03:30
L
4 °C 300 m - Var Var 1 kt METAR LFBA 260230Z AUTO VRB01KT 0350 0300 R29/0350N FG VV/// 04/04 Q1031

Noi e le terze parti seguiamo il tuo comportamento su internet con i cookie. Se continui, riteniamo che tu sia d'accordo con la nostra Politica sui cookie.